createdAt,value
2022-11-23T00:01:29.686Z,1.70
2022-11-23T00:03:59.833Z,2.83
2022-11-23T00:06:27.905Z,2.28
2022-11-23T00:08:56.055Z,2.03
2022-11-23T00:11:25.313Z,2.37
2022-11-23T00:13:53.543Z,1.80
2022-11-23T00:16:27.719Z,2.30
2022-11-23T00:19:00.612Z,2.55
2022-11-23T00:21:31.843Z,1.70
2022-11-23T00:23:59.794Z,1.70
2022-11-23T00:26:27.938Z,1.40
2022-11-23T00:28:55.656Z,1.00
2022-11-23T00:31:23.957Z,1.37
2022-11-23T00:33:53.624Z,0.90
2022-11-23T00:36:21.892Z,0.93
2022-11-23T00:38:50.720Z,1.00
2022-11-23T00:41:24.692Z,0.90
2022-11-23T00:43:52.755Z,0.95
2022-11-23T00:46:21.995Z,1.05
2022-11-23T00:48:51.652Z,0.85
2022-11-23T00:51:25.284Z,0.90
2022-11-23T00:53:53.052Z,1.10
2022-11-23T00:56:21.573Z,0.75
2022-11-23T00:58:51.344Z,0.88
2022-11-23T01:01:24.125Z,1.00
2022-11-23T01:03:54.732Z,1.00
2022-11-23T01:06:25.377Z,1.30
2022-11-23T01:08:56.497Z,1.62
2022-11-23T01:11:26.322Z,1.62
2022-11-23T01:13:54.305Z,1.00
2022-11-23T01:16:28.407Z,0.90
2022-11-23T01:18:58.424Z,0.70
2022-11-23T01:21:27.751Z,0.88
2022-11-23T01:23:56.533Z,0.90
2022-11-23T01:26:24.602Z,0.90
2022-11-23T01:28:52.810Z,1.23
2022-11-23T01:31:23.264Z,1.25
2022-11-23T01:33:55.636Z,1.02
2022-11-23T01:36:26.200Z,1.12
2022-11-23T01:38:53.957Z,0.90
2022-11-23T01:41:28.060Z,1.00
2022-11-23T01:43:55.734Z,0.90
2022-11-23T01:46:23.747Z,1.00
2022-11-23T01:48:58.844Z,0.70
2022-11-23T01:51:36.735Z,0.82
2022-11-23T01:54:15.975Z,1.10
2022-11-23T01:56:49.177Z,0.95
2022-11-23T01:59:19.841Z,1.00
2022-11-23T02:01:47.694Z,0.88
2022-11-23T02:04:23.687Z,1.35
2022-11-23T02:06:51.976Z,0.88
2022-11-23T02:09:21.299Z,0.75
2022-11-23T02:11:49.125Z,0.80
2022-11-23T02:14:22.051Z,0.80
2022-11-23T02:16:51.448Z,0.80
2022-11-23T02:19:51.326Z,0.85
2022-11-23T02:22:43.400Z,0.77
2022-11-23T02:25:20.509Z,0.85
2022-11-23T02:27:48.854Z,1.27
2022-11-23T02:30:16.687Z,1.00
2022-11-23T02:32:45.419Z,1.02
2022-11-23T02:35:13.503Z,0.93
2022-11-23T02:37:43.527Z,1.10
2022-11-23T02:40:25.481Z,1.23
2022-11-23T02:42:53.380Z,1.33
2022-11-23T02:45:38.602Z,1.98
2022-11-23T02:48:06.804Z,1.12
2022-11-23T02:50:34.690Z,1.30
2022-11-23T02:53:02.374Z,1.00
2022-11-23T02:55:30.525Z,0.90
2022-11-23T02:57:58.332Z,0.85
2022-11-23T03:00:26.216Z,0.90
2022-11-23T03:02:54.132Z,1.10
2022-11-23T03:05:22.546Z,0.88
2022-11-23T03:07:50.342Z,0.95
2022-11-23T03:10:18.621Z,1.30
2022-11-23T03:12:46.336Z,0.80
2022-11-23T03:15:14.095Z,1.15
2022-11-23T03:17:41.837Z,0.95
2022-11-23T03:20:09.964Z,1.00
2022-11-23T03:22:37.767Z,0.60
2022-11-23T03:25:05.824Z,1.08
2022-11-23T03:27:34.852Z,1.00
2022-11-23T03:30:02.741Z,0.80
2022-11-23T03:32:30.402Z,0.73
2022-11-23T03:34:58.054Z,1.00
2022-11-23T03:37:26.563Z,0.82
2022-11-23T03:39:54.220Z,0.90
2022-11-23T03:42:21.956Z,1.37
2022-11-23T03:44:49.802Z,0.93
2022-11-23T03:47:17.635Z,1.15
2022-11-23T03:49:45.270Z,1.02
2022-11-23T03:52:13.014Z,1.08
2022-11-23T03:54:40.766Z,1.12
2022-11-23T03:57:08.416Z,0.90
2022-11-23T03:59:36.125Z,1.20
2022-11-23T04:02:03.867Z,1.00
2022-11-23T04:04:31.459Z,1.10
2022-11-23T04:06:59.099Z,1.12
2022-11-23T04:09:26.985Z,0.90
2022-11-23T04:11:54.747Z,1.12
2022-11-23T04:14:22.491Z,1.65
2022-11-23T04:16:50.163Z,1.00
2022-11-23T04:19:17.831Z,0.90
2022-11-23T04:21:45.511Z,1.00
2022-11-23T04:24:13.273Z,0.90
2022-11-23T04:26:41.651Z,0.95
2022-11-23T04:29:09.368Z,1.40
2022-11-23T04:31:37.174Z,1.20
2022-11-23T04:34:04.848Z,1.12
2022-11-23T04:36:32.603Z,1.27
2022-11-23T04:39:00.326Z,0.90
2022-11-23T04:41:28.089Z,1.33
2022-11-23T04:43:55.881Z,1.20
2022-11-23T04:46:23.668Z,4.65
2022-11-23T04:48:51.324Z,2.20
2022-11-23T04:51:18.994Z,1.33
2022-11-23T04:53:46.954Z,1.40
2022-11-23T04:56:14.734Z,1.27
2022-11-23T04:58:42.777Z,1.12
2022-11-23T05:01:10.623Z,1.10
2022-11-23T05:03:38.349Z,1.62
2022-11-23T05:06:08.459Z,1.33
2022-11-23T05:08:36.119Z,1.27
2022-11-23T05:11:03.790Z,1.52
2022-11-23T05:13:31.501Z,1.83
2022-11-23T05:15:59.271Z,1.85
2022-11-23T05:18:27.144Z,1.60
2022-11-23T05:20:54.916Z,1.55
2022-11-23T05:23:22.599Z,1.62
2022-11-23T05:25:50.274Z,2.75
2022-11-23T05:28:39.533Z,1.80
2022-11-23T05:31:08.749Z,2.15
2022-11-23T05:33:37.013Z,2.00
2022-11-23T05:36:04.851Z,1.87
2022-11-23T05:38:32.515Z,1.77
2022-11-23T05:41:00.177Z,2.50
2022-11-23T05:43:28.048Z,1.80
2022-11-23T05:45:56.144Z,1.52
2022-11-23T05:48:23.890Z,1.90
2022-11-23T05:50:51.918Z,1.58
2022-11-23T05:53:19.849Z,1.77
2022-11-23T05:55:47.488Z,1.52
2022-11-23T05:58:15.247Z,1.65
2022-11-23T06:00:42.985Z,1.12
2022-11-23T06:03:10.735Z,1.37
2022-11-23T06:05:38.450Z,1.50
2022-11-23T06:08:06.188Z,1.42
2022-11-23T06:10:34.018Z,1.20
2022-11-23T06:13:06.052Z,1.45
2022-11-23T06:15:33.763Z,1.80
2022-11-23T06:18:02.925Z,1.77
2022-11-23T06:20:30.806Z,1.90
2022-11-23T06:22:58.654Z,2.62
2022-11-23T06:25:26.378Z,2.78
2022-11-23T06:27:58.737Z,2.62
2022-11-23T06:30:28.091Z,3.00
2022-11-23T06:32:56.100Z,3.00
2022-11-23T06:35:24.040Z,1.90
2022-11-23T06:37:55.763Z,2.20
2022-11-23T06:40:23.450Z,2.22
2022-11-23T06:42:51.224Z,2.45
2022-11-23T06:45:19.020Z,2.60
2022-11-23T06:47:46.690Z,2.40
2022-11-23T06:50:15.745Z,2.58
2022-11-23T06:52:43.375Z,2.53
2022-11-23T06:55:11.065Z,2.03
2022-11-23T06:57:38.712Z,1.90
2022-11-23T07:00:07.366Z,1.90
2022-11-23T07:02:35.285Z,1.90
2022-11-23T07:05:03.130Z,1.83
2022-11-23T07:07:30.909Z,1.70
2022-11-23T07:10:01.592Z,1.85
2022-11-23T07:12:31.546Z,2.12
2022-11-23T07:14:59.374Z,1.52
2022-11-23T07:17:27.102Z,1.50
2022-11-23T07:19:54.733Z,2.05
2022-11-23T07:22:22.373Z,1.90
2022-11-23T07:24:50.100Z,2.60
2022-11-23T07:27:19.070Z,1.90
2022-11-23T07:29:46.890Z,2.00
2022-11-23T07:32:16.074Z,1.62
2022-11-23T07:34:43.851Z,1.58
2022-11-23T07:37:11.667Z,2.37
2022-11-23T07:39:56.728Z,1.67
2022-11-23T07:42:35.565Z,2.20
2022-11-23T07:45:08.401Z,2.78
2022-11-23T07:47:36.020Z,2.00
2022-11-23T07:50:03.818Z,2.17
2022-11-23T07:52:31.712Z,2.15
2022-11-23T07:55:01.316Z,2.00
2022-11-23T07:57:29.415Z,2.35
2022-11-23T07:59:57.201Z,1.73
2022-11-23T08:02:25.051Z,2.75
2022-11-23T08:04:52.784Z,2.97
2022-11-23T08:07:20.600Z,2.62
2022-11-23T08:09:48.337Z,2.55
2022-11-23T08:12:16.032Z,2.70
2022-11-23T08:14:43.888Z,3.28
2022-11-23T08:17:11.626Z,5.37
2022-11-23T08:19:39.210Z,3.67
2022-11-23T08:22:06.899Z,2.42
2022-11-23T08:24:35.082Z,2.40
2022-11-23T08:27:02.869Z,2.20
2022-11-23T08:29:31.614Z,2.45
2022-11-23T08:31:59.413Z,2.28
2022-11-23T08:34:27.097Z,2.30
2022-11-23T08:36:54.708Z,2.20
2022-11-23T08:39:22.475Z,2.25
2022-11-23T08:41:50.197Z,2.33
2022-11-23T08:44:17.799Z,2.65
2022-11-23T08:46:45.512Z,2.40
2022-11-23T08:49:13.077Z,2.45
2022-11-23T08:51:43.391Z,2.40
2022-11-23T08:54:13.344Z,1.95
2022-11-23T08:56:41.070Z,2.70
2022-11-23T08:59:09.874Z,2.28
2022-11-23T09:01:37.604Z,2.10
2022-11-23T09:04:05.808Z,2.60
2022-11-23T09:06:36.933Z,2.60
2022-11-23T09:09:04.978Z,2.20
2022-11-23T09:11:32.646Z,2.10
2022-11-23T09:14:00.509Z,2.53
2022-11-23T09:16:33.585Z,2.67
2022-11-23T09:19:01.945Z,3.17
2022-11-23T09:21:34.520Z,2.75
2022-11-23T09:24:03.050Z,2.60
2022-11-23T09:26:32.815Z,3.22
2022-11-23T09:29:00.744Z,2.85
2022-11-23T09:31:30.005Z,2.80
2022-11-23T09:33:57.709Z,2.65
2022-11-23T09:36:25.403Z,2.90
2022-11-23T09:38:57.459Z,2.60
2022-11-23T09:41:47.051Z,2.28
2022-11-23T09:44:56.927Z,2.50
2022-11-23T09:47:56.913Z,3.20
2022-11-23T09:50:30.824Z,2.67
2022-11-23T09:53:05.400Z,2.28
2022-11-23T09:55:42.485Z,2.62
2022-11-23T09:58:17.712Z,2.37
2022-11-23T10:01:09.435Z,2.20
2022-11-23T10:03:43.880Z,1.92
2022-11-23T10:06:27.259Z,2.20
2022-11-23T10:09:12.889Z,2.58
2022-11-23T10:12:06.296Z,2.85
2022-11-23T10:15:01.458Z,2.50
2022-11-23T10:18:10.358Z,2.67
2022-11-23T10:20:43.438Z,2.62
2022-11-23T10:23:34.021Z,2.22
2022-11-23T10:26:01.648Z,2.35
2022-11-23T10:28:33.375Z,2.42
2022-11-23T10:31:13.393Z,2.03
2022-11-23T10:33:53.243Z,2.22
2022-11-23T10:36:20.910Z,2.28
2022-11-23T10:38:55.560Z,1.87
2022-11-23T10:41:23.311Z,1.80
2022-11-23T10:44:06.949Z,1.70
2022-11-23T10:46:38.400Z,1.45
2022-11-23T10:49:19.161Z,1.40
2022-11-23T10:51:55.297Z,1.52
2022-11-23T10:54:37.902Z,1.73
2022-11-23T10:57:43.889Z,1.23
2022-11-23T11:00:14.370Z,1.10
2022-11-23T11:02:46.311Z,1.48
2022-11-23T11:06:06.868Z,1.27
2022-11-23T11:08:21.708Z,1.08
2022-11-23T11:10:51.345Z,0.93
2022-11-23T11:13:24.972Z,1.27
2022-11-23T11:16:35.836Z,1.37
2022-11-23T11:19:22.372Z,1.10
2022-11-23T11:21:50.058Z,1.45
2022-11-23T11:24:41.604Z,1.20
2022-11-23T11:27:19.404Z,1.10
2022-11-23T11:29:46.946Z,1.10
2022-11-23T11:32:24.973Z,1.10
2022-11-23T11:35:12.827Z,1.35
2022-11-23T11:37:48.551Z,0.90
2022-11-23T11:40:31.044Z,0.60
2022-11-23T11:43:05.590Z,0.90
2022-11-23T11:45:38.068Z,1.30
2022-11-23T11:48:29.554Z,1.50
2022-11-23T11:51:17.395Z,1.98
2022-11-23T11:53:55.774Z,1.20
2022-11-23T11:56:37.801Z,1.33
2022-11-23T11:59:46.540Z,1.02
2022-11-23T12:02:31.070Z,1.92
2022-11-23T12:05:23.393Z,1.50
2022-11-23T12:08:10.641Z,1.77
2022-11-23T12:10:53.021Z,1.48
2022-11-23T12:13:26.868Z,1.70
2022-11-23T12:16:08.854Z,1.45
2022-11-23T12:18:39.267Z,1.67
2022-11-23T12:21:33.975Z,1.10
2022-11-23T12:24:22.042Z,1.70
2022-11-23T12:27:05.752Z,1.50
2022-11-23T12:30:10.290Z,1.12
2022-11-23T12:32:59.677Z,1.45
2022-11-23T12:35:55.369Z,1.30
2022-11-23T12:38:39.162Z,1.40
2022-11-23T12:41:12.602Z,1.52
2022-11-23T12:44:05.866Z,1.60
2022-11-23T12:46:47.043Z,1.33
2022-11-23T12:49:26.925Z,2.35
2022-11-23T12:52:00.543Z,1.40
2022-11-23T12:54:53.137Z,1.60
2022-11-23T12:57:39.398Z,1.75
2022-11-23T13:00:16.221Z,1.20
2022-11-23T13:02:43.768Z,1.10
2022-11-23T13:05:35.625Z,1.02
2022-11-23T13:08:24.888Z,1.70
2022-11-23T13:11:02.450Z,1.30
2022-11-23T13:13:51.087Z,1.58
2022-11-23T13:16:56.698Z,1.33
2022-11-23T13:19:51.289Z,1.00
2022-11-23T13:22:23.711Z,1.20
2022-11-23T13:25:11.265Z,1.30
2022-11-23T13:27:44.478Z,1.48
2022-11-23T13:30:35.634Z,1.27
2022-11-23T13:33:25.282Z,1.48
2022-11-23T13:36:03.536Z,1.30
2022-11-23T13:38:42.428Z,1.40
2022-11-23T13:41:39.285Z,1.23
2022-11-23T13:44:27.743Z,1.02
2022-11-23T13:47:07.079Z,1.20
2022-11-23T13:49:46.082Z,1.40
2022-11-23T13:52:29.806Z,1.55
2022-11-23T13:55:12.651Z,1.27
2022-11-23T13:57:46.711Z,1.20
2022-11-23T14:00:48.708Z,1.52
2022-11-23T14:03:53.412Z,1.40
2022-11-23T14:06:45.691Z,1.33
2022-11-23T14:09:31.335Z,1.60
2022-11-23T14:12:15.914Z,1.48
2022-11-23T14:15:08.360Z,1.30
2022-11-23T14:17:39.043Z,1.50
2022-11-23T14:20:29.950Z,1.35
2022-11-23T14:23:27.868Z,1.70
2022-11-23T14:26:15.929Z,1.83
2022-11-23T14:28:53.835Z,1.52
2022-11-23T14:31:52.828Z,1.77
2022-11-23T14:34:55.567Z,1.60
2022-11-23T14:37:42.671Z,1.70
2022-11-23T14:40:28.641Z,1.45
2022-11-23T14:42:57.875Z,1.83
2022-11-23T14:45:30.852Z,1.90
2022-11-23T14:47:58.637Z,1.55
2022-11-23T14:50:30.787Z,1.50
2022-11-23T14:53:00.251Z,2.00
2022-11-23T14:55:31.014Z,1.77
2022-11-23T14:58:06.423Z,1.92
2022-11-23T15:00:40.365Z,1.92
2022-11-23T15:03:48.727Z,2.50
2022-11-23T15:06:17.807Z,2.22
2022-11-23T15:08:48.637Z,2.12
2022-11-23T15:11:22.698Z,3.00
2022-11-23T15:13:56.392Z,2.17
2022-11-23T15:16:24.422Z,1.80
2022-11-23T15:18:53.000Z,1.52
2022-11-23T15:21:27.199Z,1.60
2022-11-23T15:24:01.142Z,1.73
2022-11-23T15:26:48.834Z,2.42
2022-11-23T15:29:37.441Z,1.77
2022-11-23T15:32:34.441Z,1.98
2022-11-23T15:35:09.263Z,1.92
2022-11-23T15:37:48.993Z,2.30
2022-11-23T15:40:19.114Z,2.28
2022-11-23T15:42:49.853Z,2.80
2022-11-23T15:45:45.520Z,2.70
2022-11-23T15:48:18.575Z,2.25
2022-11-23T15:50:57.896Z,2.50
2022-11-23T15:53:28.769Z,2.15
2022-11-23T15:56:00.695Z,2.17
2022-11-23T15:58:29.259Z,2.50
2022-11-23T16:01:13.903Z,2.47
2022-11-23T16:03:41.550Z,2.55
2022-11-23T16:06:14.992Z,2.90
2022-11-23T16:08:42.752Z,3.50
2022-11-23T16:11:32.021Z,3.50
2022-11-23T16:14:20.991Z,3.35
2022-11-23T16:16:59.674Z,2.55
2022-11-23T16:19:33.754Z,2.70
2022-11-23T16:22:08.444Z,2.62
2022-11-23T16:24:37.329Z,3.12
2022-11-23T16:27:14.173Z,3.10
2022-11-23T16:29:43.079Z,3.10
2022-11-23T16:32:28.601Z,4.10
2022-11-23T16:34:59.083Z,4.00
2022-11-23T16:37:27.480Z,4.62
2022-11-23T16:39:55.159Z,3.62
2022-11-23T16:42:22.960Z,3.83
2022-11-23T16:44:50.600Z,3.20
2022-11-23T16:47:23.199Z,3.00
2022-11-23T16:49:51.789Z,3.05
2022-11-23T16:52:20.195Z,2.95
2022-11-23T16:54:48.124Z,2.95
2022-11-23T16:57:28.266Z,2.78
2022-11-23T16:59:56.277Z,2.78
2022-11-23T17:02:24.077Z,1.90
2022-11-23T17:04:51.839Z,1.50
2022-11-23T17:07:19.545Z,1.20
2022-11-23T17:09:47.276Z,1.30
2022-11-23T17:12:19.688Z,1.20
2022-11-23T17:14:49.732Z,1.87
2022-11-23T17:17:23.222Z,1.10
2022-11-23T17:19:51.512Z,1.33
2022-11-23T17:22:20.992Z,1.20
2022-11-23T17:24:49.880Z,1.05
2022-11-23T17:27:23.377Z,1.30
2022-11-23T17:30:00.858Z,1.60
2022-11-23T17:32:29.243Z,1.27
2022-11-23T17:34:56.951Z,1.12
2022-11-23T17:37:25.650Z,1.12
2022-11-23T17:39:53.648Z,2.53
2022-11-23T17:42:21.811Z,2.47
2022-11-23T17:44:49.675Z,5.20
2022-11-23T17:47:31.483Z,2.83
2022-11-23T17:49:59.561Z,1.30
2022-11-23T17:52:27.471Z,1.30
2022-11-23T17:54:55.351Z,1.20
2022-11-23T17:57:25.372Z,1.55
2022-11-23T17:59:53.998Z,1.40
2022-11-23T18:02:22.461Z,1.80
2022-11-23T18:04:50.268Z,1.40
2022-11-23T18:07:18.063Z,1.30
2022-11-23T18:09:45.890Z,1.20
2022-11-23T18:12:13.611Z,2.05
2022-11-23T18:14:41.308Z,1.90
2022-11-23T18:17:09.014Z,1.33
2022-11-23T18:19:36.697Z,1.20
2022-11-23T18:22:04.338Z,1.42
2022-11-23T18:24:32.086Z,1.20
2022-11-23T18:26:59.805Z,1.55
2022-11-23T18:29:27.445Z,1.15
2022-11-23T18:31:55.160Z,1.40
2022-11-23T18:34:22.843Z,1.90
2022-11-23T18:36:50.473Z,1.35
2022-11-23T18:39:18.160Z,1.20
2022-11-23T18:41:45.806Z,1.00
2022-11-23T18:44:13.569Z,1.15
2022-11-23T18:46:42.289Z,1.52
2022-11-23T18:49:10.070Z,1.83
2022-11-23T18:51:37.768Z,1.83
2022-11-23T18:54:05.951Z,2.30
2022-11-23T18:56:33.670Z,2.10
2022-11-23T18:59:01.478Z,1.98
2022-11-23T19:01:29.344Z,1.80
2022-11-23T19:03:57.225Z,1.45
2022-11-23T19:06:25.221Z,1.77
2022-11-23T19:09:00.241Z,1.90
2022-11-23T19:11:29.673Z,2.05
2022-11-23T19:13:59.551Z,1.95
2022-11-23T19:16:31.117Z,1.80
2022-11-23T19:19:07.562Z,1.77
2022-11-23T19:21:37.338Z,2.12
2022-11-23T19:24:06.020Z,1.92
2022-11-23T19:26:34.091Z,2.15
2022-11-23T19:29:01.886Z,1.90
2022-11-23T19:31:31.716Z,2.53
2022-11-23T19:34:02.202Z,2.20
2022-11-23T19:36:32.153Z,2.78
2022-11-23T19:39:04.060Z,3.35
2022-11-23T19:41:32.583Z,2.95
2022-11-23T19:44:01.787Z,4.37
2022-11-23T19:46:31.414Z,3.00
2022-11-23T19:48:59.805Z,2.20
2022-11-23T19:51:28.403Z,2.03
2022-11-23T19:53:58.679Z,2.17
2022-11-23T19:56:28.692Z,2.28
2022-11-23T19:59:01.937Z,2.78
2022-11-23T20:01:34.742Z,2.08
2022-11-23T20:04:09.345Z,1.75
2022-11-23T20:06:43.296Z,2.08
2022-11-23T20:09:14.286Z,1.90
2022-11-23T20:11:45.855Z,1.77
2022-11-23T20:14:16.511Z,1.60
2022-11-23T20:16:44.271Z,1.85
2022-11-23T20:19:12.247Z,2.30
2022-11-23T20:21:40.048Z,1.70
2022-11-23T20:24:13.525Z,1.90
2022-11-23T20:26:42.318Z,1.70
2022-11-23T20:29:10.452Z,1.75
2022-11-23T20:31:38.929Z,1.90
2022-11-23T20:34:08.304Z,1.67
2022-11-23T20:36:38.688Z,1.35
2022-11-23T20:39:09.037Z,1.95
2022-11-23T20:41:38.374Z,1.87
2022-11-23T20:44:16.172Z,1.37
2022-11-23T20:49:32.656Z,1.80
2022-11-23T20:52:01.480Z,1.50
2022-11-23T20:54:29.278Z,1.58
2022-11-23T20:56:59.078Z,1.65
2022-11-23T20:59:27.305Z,1.73
2022-11-23T21:01:55.103Z,1.52
2022-11-23T21:04:22.831Z,2.55
2022-11-23T21:06:50.488Z,1.90
2022-11-23T21:09:18.232Z,1.67
2022-11-23T21:12:04.334Z,1.95
2022-11-23T21:14:33.872Z,1.92
2022-11-23T21:17:02.411Z,1.80
2022-11-23T21:19:32.741Z,1.58
2022-11-23T21:22:07.445Z,1.35
2022-11-23T21:24:36.513Z,1.42
2022-11-23T21:27:06.149Z,1.60
2022-11-23T21:29:34.553Z,1.65
2022-11-23T21:32:05.373Z,1.58
2022-11-23T21:34:33.358Z,1.40
2022-11-23T21:37:01.555Z,1.80
2022-11-23T21:39:32.095Z,1.33
2022-11-23T21:42:00.142Z,1.33
2022-11-23T21:44:28.261Z,1.60
2022-11-23T21:46:56.349Z,1.52
2022-11-23T21:49:24.383Z,1.23
2022-11-23T21:51:52.047Z,1.65
2022-11-23T21:54:19.837Z,1.87
2022-11-23T21:56:48.013Z,1.42
2022-11-23T21:59:15.760Z,1.58
2022-11-23T22:01:44.214Z,1.48
2022-11-23T22:04:16.814Z,1.70
2022-11-23T22:06:46.180Z,1.08
2022-11-23T22:09:14.171Z,1.37
2022-11-23T22:11:44.202Z,1.00
2022-11-23T22:14:14.400Z,1.20
2022-11-23T22:16:44.612Z,0.95
2022-11-23T22:19:14.223Z,1.08
2022-11-23T22:21:44.048Z,1.65
2022-11-23T22:24:17.372Z,1.17
2022-11-23T22:26:46.193Z,0.82
2022-11-23T22:29:14.225Z,0.85
2022-11-23T22:31:42.298Z,0.90
2022-11-23T22:34:13.249Z,0.90
2022-11-23T22:36:41.140Z,0.77
2022-11-23T22:39:09.372Z,0.50
2022-11-23T22:41:38.289Z,0.62
2022-11-23T22:44:08.120Z,0.80
2022-11-23T22:46:36.460Z,0.80
2022-11-23T22:49:04.468Z,0.70
2022-11-23T22:51:32.209Z,0.57
2022-11-23T22:54:01.259Z,0.55
2022-11-23T22:56:30.336Z,0.62
2022-11-23T22:58:58.189Z,0.50
2022-11-23T23:01:30.987Z,0.50
2022-11-23T23:04:03.438Z,0.50
2022-11-23T23:06:36.947Z,0.60
2022-11-23T23:09:07.167Z,0.73
2022-11-23T23:11:35.919Z,0.90
2022-11-23T23:14:03.856Z,0.62
2022-11-23T23:16:32.035Z,0.60
2022-11-23T23:19:00.668Z,0.32
2022-11-23T23:21:30.143Z,0.50
2022-11-23T23:24:00.309Z,0.60
2022-11-23T23:26:29.636Z,0.60
2022-11-23T23:28:59.266Z,0.50
2022-11-23T23:31:28.137Z,0.50
2022-11-23T23:33:56.229Z,0.60
2022-11-23T23:36:25.051Z,0.40
2022-11-23T23:38:53.170Z,0.50
2022-11-23T23:41:21.123Z,0.73
2022-11-23T23:43:51.668Z,0.80
2022-11-23T23:46:20.821Z,0.47
2022-11-23T23:48:48.651Z,0.43
2022-11-23T23:51:18.740Z,0.40
2022-11-23T23:53:47.430Z,0.50
2022-11-23T23:56:21.025Z,0.60
2022-11-23T23:58:49.480Z,0.43
